sensor_id;sensor_type;location;lat;lon;timestamp;temperature;humidity
8565;DHT22;4320;51.498;6.556;2024-01-30T00:01:05;10.20;16.50
8565;DHT22;4320;51.498;6.556;2024-01-30T00:03:31;10.20;17.00
8565;DHT22;4320;51.498;6.556;2024-01-30T00:05:57;10.10;17.00
8565;DHT22;4320;51.498;6.556;2024-01-30T00:08:22;10.00;18.70
8565;DHT22;4320;51.498;6.556;2024-01-30T00:10:48;10.00;20.20
8565;DHT22;4320;51.498;6.556;2024-01-30T00:13:13;10.00;21.00
8565;DHT22;4320;51.498;6.556;2024-01-30T00:15:41;10.00;21.30
8565;DHT22;4320;51.498;6.556;2024-01-30T00:18:07;10.00;21.60
8565;DHT22;4320;51.498;6.556;2024-01-30T00:20:32;10.00;22.20
8565;DHT22;4320;51.498;6.556;2024-01-30T00:22:58;10.00;22.90
8565;DHT22;4320;51.498;6.556;2024-01-30T00:25:24;10.00;25.70
8565;DHT22;4320;51.498;6.556;2024-01-30T00:27:49;10.00;23.20
8565;DHT22;4320;51.498;6.556;2024-01-30T00:30:15;9.90;24.40
8565;DHT22;4320;51.498;6.556;2024-01-30T00:32:41;9.90;25.10
8565;DHT22;4320;51.498;6.556;2024-01-30T00:35:06;9.90;26.20
8565;DHT22;4320;51.498;6.556;2024-01-30T00:37:32;10.00;24.80
8565;DHT22;4320;51.498;6.556;2024-01-30T00:39:57;10.00;24.20
8565;DHT22;4320;51.498;6.556;2024-01-30T00:42:23;10.00;24.00
8565;DHT22;4320;51.498;6.556;2024-01-30T00:44:49;10.00;23.10
8565;DHT22;4320;51.498;6.556;2024-01-30T00:47:15;9.90;25.00
8565;DHT22;4320;51.498;6.556;2024-01-30T00:49:41;9.80;26.50
8565;DHT22;4320;51.498;6.556;2024-01-30T00:52:06;9.90;27.30
8565;DHT22;4320;51.498;6.556;2024-01-30T00:54:32;10.00;25.60
8565;DHT22;4320;51.498;6.556;2024-01-30T00:56:57;9.90;26.70
8565;DHT22;4320;51.498;6.556;2024-01-30T00:59:23;9.90;26.60
8565;DHT22;4320;51.498;6.556;2024-01-30T01:01:49;9.90;26.90
8565;DHT22;4320;51.498;6.556;2024-01-30T01:04:14;9.90;27.00
8565;DHT22;4320;51.498;6.556;2024-01-30T01:06:40;9.80;26.80
8565;DHT22;4320;51.498;6.556;2024-01-30T01:09:10;9.90;26.80
8565;DHT22;4320;51.498;6.556;2024-01-30T01:11:36;9.90;26.60
8565;DHT22;4320;51.498;6.556;2024-01-30T01:14:03;9.90;26.50
8565;DHT22;4320;51.498;6.556;2024-01-30T01:16:31;9.80;27.00
8565;DHT22;4320;51.498;6.556;2024-01-30T01:18:57;9.90;28.10
8565;DHT22;4320;51.498;6.556;2024-01-30T01:21:22;9.90;27.90
8565;DHT22;4320;51.498;6.556;2024-01-30T01:23:48;9.90;28.20
8565;DHT22;4320;51.498;6.556;2024-01-30T01:26:14;9.80;28.90
8565;DHT22;4320;51.498;6.556;2024-01-30T01:28:41;9.70;29.60
8565;DHT22;4320;51.498;6.556;2024-01-30T01:31:06;9.70;32.70
8565;DHT22;4320;51.498;6.556;2024-01-30T01:33:33;9.70;32.90
8565;DHT22;4320;51.498;6.556;2024-01-30T01:35:59;9.80;31.60
8565;DHT22;4320;51.498;6.556;2024-01-30T01:38:28;9.80;30.40
8565;DHT22;4320;51.498;6.556;2024-01-30T01:40:53;9.80;30.30
8565;DHT22;4320;51.498;6.556;2024-01-30T01:43:22;9.70;30.80
8565;DHT22;4320;51.498;6.556;2024-01-30T01:45:47;9.80;34.40
8565;DHT22;4320;51.498;6.556;2024-01-30T01:48:13;9.80;31.20
8565;DHT22;4320;51.498;6.556;2024-01-30T01:50:39;9.70;30.80
8565;DHT22;4320;51.498;6.556;2024-01-30T01:53:07;9.80;30.00
8565;DHT22;4320;51.498;6.556;2024-01-30T01:55:33;9.90;29.70
8565;DHT22;4320;51.498;6.556;2024-01-30T01:57:59;9.90;28.90
8565;DHT22;4320;51.498;6.556;2024-01-30T02:00:25;9.70;29.50
8565;DHT22;4320;51.498;6.556;2024-01-30T02:02:51;9.70;30.70
8565;DHT22;4320;51.498;6.556;2024-01-30T02:05:19;9.60;32.40
8565;DHT22;4320;51.498;6.556;2024-01-30T02:07:45;9.60;33.60
8565;DHT22;4320;51.498;6.556;2024-01-30T02:10:11;9.70;33.50
8565;DHT22;4320;51.498;6.556;2024-01-30T02:12:37;9.60;34.10
8565;DHT22;4320;51.498;6.556;2024-01-30T02:15:03;9.50;33.60
8565;DHT22;4320;51.498;6.556;2024-01-30T02:17:30;9.50;37.20
8565;DHT22;4320;51.498;6.556;2024-01-30T02:19:55;9.50;37.90
8565;DHT22;4320;51.498;6.556;2024-01-30T02:22:22;9.60;37.90
8565;DHT22;4320;51.498;6.556;2024-01-30T02:24:48;9.70;41.90
8565;DHT22;4320;51.498;6.556;2024-01-30T02:27:14;9.60;35.80
8565;DHT22;4320;51.498;6.556;2024-01-30T02:29:39;9.60;35.10
8565;DHT22;4320;51.498;6.556;2024-01-30T02:32:05;9.60;34.90
8565;DHT22;4320;51.498;6.556;2024-01-30T02:34:31;9.50;37.50
8565;DHT22;4320;51.498;6.556;2024-01-30T02:36:57;9.50;37.30
8565;DHT22;4320;51.498;6.556;2024-01-30T02:39:22;9.50;38.00
8565;DHT22;4320;51.498;6.556;2024-01-30T02:41:48;9.60;36.50
8565;DHT22;4320;51.498;6.556;2024-01-30T02:44:14;9.60;35.70
8565;DHT22;4320;51.498;6.556;2024-01-30T02:46:39;9.60;35.20
8565;DHT22;4320;51.498;6.556;2024-01-30T02:49:05;9.60;34.80
8565;DHT22;4320;51.498;6.556;2024-01-30T02:51:30;9.60;35.00
8565;DHT22;4320;51.498;6.556;2024-01-30T02:53:56;9.60;34.30
8565;DHT22;4320;51.498;6.556;2024-01-30T02:56:22;9.60;34.60
8565;DHT22;4320;51.498;6.556;2024-01-30T02:58:47;9.60;33.70
8565;DHT22;4320;51.498;6.556;2024-01-30T03:01:13;9.60;34.70
8565;DHT22;4320;51.498;6.556;2024-01-30T03:03:38;9.60;33.50
8565;DHT22;4320;51.498;6.556;2024-01-30T03:06:06;9.60;32.10
8565;DHT22;4320;51.498;6.556;2024-01-30T03:08:32;9.50;34.20
8565;DHT22;4320;51.498;6.556;2024-01-30T03:11:00;9.50;32.90
8565;DHT22;4320;51.498;6.556;2024-01-30T03:13:25;9.50;33.50
8565;DHT22;4320;51.498;6.556;2024-01-30T03:15:51;9.40;35.00
8565;DHT22;4320;51.498;6.556;2024-01-30T03:18:17;9.40;36.50
8565;DHT22;4320;51.498;6.556;2024-01-30T03:20:43;9.40;36.40
8565;DHT22;4320;51.498;6.556;2024-01-30T03:23:09;9.40;37.40
8565;DHT22;4320;51.498;6.556;2024-01-30T03:25:34;9.40;37.10
8565;DHT22;4320;51.498;6.556;2024-01-30T03:28:00;9.40;37.30
8565;DHT22;4320;51.498;6.556;2024-01-30T03:30:25;9.40;37.10
8565;DHT22;4320;51.498;6.556;2024-01-30T03:32:51;9.40;38.40
8565;DHT22;4320;51.498;6.556;2024-01-30T03:35:18;9.40;38.60
8565;DHT22;4320;51.498;6.556;2024-01-30T03:37:43;9.30;38.40
8565;DHT22;4320;51.498;6.556;2024-01-30T03:40:09;9.30;38.60
8565;DHT22;4320;51.498;6.556;2024-01-30T03:42:35;9.30;38.60
8565;DHT22;4320;51.498;6.556;2024-01-30T03:45:01;9.20;41.30
8565;DHT22;4320;51.498;6.556;2024-01-30T03:47:27;9.30;41.90
8565;DHT22;4320;51.498;6.556;2024-01-30T03:49:53;9.20;40.80
8565;DHT22;4320;51.498;6.556;2024-01-30T03:52:19;9.30;42.30
8565;DHT22;4320;51.498;6.556;2024-01-30T03:54:44;9.30;41.80
8565;DHT22;4320;51.498;6.556;2024-01-30T03:57:10;9.20;42.60
8565;DHT22;4320;51.498;6.556;2024-01-30T03:59:36;9.10;45.10
8565;DHT22;4320;51.498;6.556;2024-01-30T04:02:01;9.20;45.30
8565;DHT22;4320;51.498;6.556;2024-01-30T04:04:27;9.20;45.90
8565;DHT22;4320;51.498;6.556;2024-01-30T04:06:53;9.10;47.90
8565;DHT22;4320;51.498;6.556;2024-01-30T04:09:18;9.10;51.00
8565;DHT22;4320;51.498;6.556;2024-01-30T04:11:44;9.20;53.70
8565;DHT22;4320;51.498;6.556;2024-01-30T04:14:10;9.10;51.60
8565;DHT22;4320;51.498;6.556;2024-01-30T04:16:35;9.10;54.30
8565;DHT22;4320;51.498;6.556;2024-01-30T04:19:01;9.10;55.20
8565;DHT22;4320;51.498;6.556;2024-01-30T04:21:27;9.20;55.40
8565;DHT22;4320;51.498;6.556;2024-01-30T04:23:53;9.20;53.60
8565;DHT22;4320;51.498;6.556;2024-01-30T04:26:18;9.20;52.20
8565;DHT22;4320;51.498;6.556;2024-01-30T04:28:45;9.20;51.30
8565;DHT22;4320;51.498;6.556;2024-01-30T04:31:11;9.20;50.00
8565;DHT22;4320;51.498;6.556;2024-01-30T04:33:37;9.30;49.70
8565;DHT22;4320;51.498;6.556;2024-01-30T04:36:03;9.20;49.80
8565;DHT22;4320;51.498;6.556;2024-01-30T04:38:29;9.20;50.20
8565;DHT22;4320;51.498;6.556;2024-01-30T04:40:55;9.20;50.40
8565;DHT22;4320;51.498;6.556;2024-01-30T04:43:21;9.10;51.10
8565;DHT22;4320;51.498;6.556;2024-01-30T04:45:47;9.10;51.90
8565;DHT22;4320;51.498;6.556;2024-01-30T04:48:13;9.00;55.20
8565;DHT22;4320;51.498;6.556;2024-01-30T04:50:39;9.00;57.20
8565;DHT22;4320;51.498;6.556;2024-01-30T04:53:04;9.00;59.60
8565;DHT22;4320;51.498;6.556;2024-01-30T04:55:30;9.00;62.60
8565;DHT22;4320;51.498;6.556;2024-01-30T04:57:55;9.00;64.70
8565;DHT22;4320;51.498;6.556;2024-01-30T05:00:21;9.00;65.40
8565;DHT22;4320;51.498;6.556;2024-01-30T05:02:47;9.00;65.30
8565;DHT22;4320;51.498;6.556;2024-01-30T05:05:12;9.00;66.10
8565;DHT22;4320;51.498;6.556;2024-01-30T05:07:40;9.00;67.50
8565;DHT22;4320;51.498;6.556;2024-01-30T05:10:06;9.00;64.80
8565;DHT22;4320;51.498;6.556;2024-01-30T05:12:32;9.00;64.10
8565;DHT22;4320;51.498;6.556;2024-01-30T05:14:57;9.00;64.00
8565;DHT22;4320;51.498;6.556;2024-01-30T05:17:23;9.10;65.20
8565;DHT22;4320;51.498;6.556;2024-01-30T05:19:49;9.00;64.90
8565;DHT22;4320;51.498;6.556;2024-01-30T05:22:14;9.10;64.50
8565;DHT22;4320;51.498;6.556;2024-01-30T05:24:41;9.10;63.70
8565;DHT22;4320;51.498;6.556;2024-01-30T05:27:08;9.10;61.60
8565;DHT22;4320;51.498;6.556;2024-01-30T05:29:33;9.10;67.50
8565;DHT22;4320;51.498;6.556;2024-01-30T05:31:59;9.10;62.70
8565;DHT22;4320;51.498;6.556;2024-01-30T05:34:24;9.00;65.10
8565;DHT22;4320;51.498;6.556;2024-01-30T05:36:50;9.00;67.40
8565;DHT22;4320;51.498;6.556;2024-01-30T05:39:16;9.00;68.90
8565;DHT22;4320;51.498;6.556;2024-01-30T05:41:41;9.00;69.20
8565;DHT22;4320;51.498;6.556;2024-01-30T05:44:07;9.10;69.60
8565;DHT22;4320;51.498;6.556;2024-01-30T05:46:33;9.10;68.20
8565;DHT22;4320;51.498;6.556;2024-01-30T05:48:59;9.00;72.30
8565;DHT22;4320;51.498;6.556;2024-01-30T05:51:24;9.00;75.10
8565;DHT22;4320;51.498;6.556;2024-01-30T05:53:50;9.10;74.80
8565;DHT22;4320;51.498;6.556;2024-01-30T05:56:15;9.20;72.70
8565;DHT22;4320;51.498;6.556;2024-01-30T05:58:41;9.20;72.00
8565;DHT22;4320;51.498;6.556;2024-01-30T06:01:08;9.20;69.90
8565;DHT22;4320;51.498;6.556;2024-01-30T06:03:34;9.20;69.90
8565;DHT22;4320;51.498;6.556;2024-01-30T06:06:00;9.20;70.20
8565;DHT22;4320;51.498;6.556;2024-01-30T06:08:26;9.20;68.50
8565;DHT22;4320;51.498;6.556;2024-01-30T06:10:51;9.20;70.20
8565;DHT22;4320;51.498;6.556;2024-01-30T06:13:17;9.20;70.30
8565;DHT22;4320;51.498;6.556;2024-01-30T06:15:43;9.20;70.80
8565;DHT22;4320;51.498;6.556;2024-01-30T06:18:08;9.30;69.70
8565;DHT22;4320;51.498;6.556;2024-01-30T06:20:34;9.30;67.90
8565;DHT22;4320;51.498;6.556;2024-01-30T06:23:00;9.20;66.60
8565;DHT22;4320;51.498;6.556;2024-01-30T06:25:26;9.20;67.50
8565;DHT22;4320;51.498;6.556;2024-01-30T06:27:51;9.20;67.80
8565;DHT22;4320;51.498;6.556;2024-01-30T06:30:18;9.20;68.00
8565;DHT22;4320;51.498;6.556;2024-01-30T06:32:43;9.20;68.00
8565;DHT22;4320;51.498;6.556;2024-01-30T06:35:09;9.20;67.90
8565;DHT22;4320;51.498;6.556;2024-01-30T06:37:36;9.30;66.70
8565;DHT22;4320;51.498;6.556;2024-01-30T06:40:01;9.30;65.90
8565;DHT22;4320;51.498;6.556;2024-01-30T06:42:27;9.30;64.60
8565;DHT22;4320;51.498;6.556;2024-01-30T06:44:53;9.30;63.80
8565;DHT22;4320;51.498;6.556;2024-01-30T06:47:19;9.20;64.50
8565;DHT22;4320;51.498;6.556;2024-01-30T06:49:44;9.30;66.70
8565;DHT22;4320;51.498;6.556;2024-01-30T06:52:10;9.20;67.30
8565;DHT22;4320;51.498;6.556;2024-01-30T06:54:36;9.10;67.00
8565;DHT22;4320;51.498;6.556;2024-01-30T06:57:02;9.20;68.50
8565;DHT22;4320;51.498;6.556;2024-01-30T06:59:28;9.20;68.20
8565;DHT22;4320;51.498;6.556;2024-01-30T07:01:54;9.20;68.00
8565;DHT22;4320;51.498;6.556;2024-01-30T07:04:19;9.20;69.90
8565;DHT22;4320;51.498;6.556;2024-01-30T07:06:45;9.20;70.30
8565;DHT22;4320;51.498;6.556;2024-01-30T07:09:11;9.10;70.00
8565;DHT22;4320;51.498;6.556;2024-01-30T07:11:37;9.10;71.60
8565;DHT22;4320;51.498;6.556;2024-01-30T07:14:03;9.10;77.60
8565;DHT22;4320;51.498;6.556;2024-01-30T07:16:31;9.20;72.90
8565;DHT22;4320;51.498;6.556;2024-01-30T07:18:57;9.30;73.40
8565;DHT22;4320;51.498;6.556;2024-01-30T07:21:23;9.20;70.00
8565;DHT22;4320;51.498;6.556;2024-01-30T07:23:54;9.30;72.70
8565;DHT22;4320;51.498;6.556;2024-01-30T07:26:19;9.30;71.50
8565;DHT22;4320;51.498;6.556;2024-01-30T07:28:45;9.30;71.60
8565;DHT22;4320;51.498;6.556;2024-01-30T07:31:10;9.40;75.30
8565;DHT22;4320;51.498;6.556;2024-01-30T07:33:36;9.40;69.00
8565;DHT22;4320;51.498;6.556;2024-01-30T07:36:02;9.40;68.80
8565;DHT22;4320;51.498;6.556;2024-01-30T07:38:27;9.40;66.80
8565;DHT22;4320;51.498;6.556;2024-01-30T07:40:53;9.30;67.80
8565;DHT22;4320;51.498;6.556;2024-01-30T07:43:18;9.30;69.70
8565;DHT22;4320;51.498;6.556;2024-01-30T07:45:45;9.30;69.50
8565;DHT22;4320;51.498;6.556;2024-01-30T07:48:11;9.40;70.10
8565;DHT22;4320;51.498;6.556;2024-01-30T07:50:36;9.40;68.90
8565;DHT22;4320;51.498;6.556;2024-01-30T07:53:02;9.40;68.00
8565;DHT22;4320;51.498;6.556;2024-01-30T07:55:28;9.40;67.80
8565;DHT22;4320;51.498;6.556;2024-01-30T07:57:55;9.40;67.00
8565;DHT22;4320;51.498;6.556;2024-01-30T08:00:21;9.40;67.50
8565;DHT22;4320;51.498;6.556;2024-01-30T08:02:47;9.40;67.30
8565;DHT22;4320;51.498;6.556;2024-01-30T08:05:13;9.40;67.50
8565;DHT22;4320;51.498;6.556;2024-01-30T08:07:41;9.40;65.90
8565;DHT22;4320;51.498;6.556;2024-01-30T08:10:07;9.50;65.90
8565;DHT22;4320;51.498;6.556;2024-01-30T08:12:33;9.50;63.80
8565;DHT22;4320;51.498;6.556;2024-01-30T08:14:58;9.50;64.20
8565;DHT22;4320;51.498;6.556;2024-01-30T08:17:24;9.60;63.30
8565;DHT22;4320;51.498;6.556;2024-01-30T08:19:49;9.60;61.90
8565;DHT22;4320;51.498;6.556;2024-01-30T08:22:15;9.50;61.70
8565;DHT22;4320;51.498;6.556;2024-01-30T08:24:41;9.50;65.30
8565;DHT22;4320;51.498;6.556;2024-01-30T08:27:07;9.60;64.50
8565;DHT22;4320;51.498;6.556;2024-01-30T08:29:35;9.60;63.60
8565;DHT22;4320;51.498;6.556;2024-01-30T08:32:01;9.60;63.20
8565;DHT22;4320;51.498;6.556;2024-01-30T08:34:26;9.60;62.40
8565;DHT22;4320;51.498;6.556;2024-01-30T08:36:52;9.70;61.70
8565;DHT22;4320;51.498;6.556;2024-01-30T08:39:18;9.70;59.80
8565;DHT22;4320;51.498;6.556;2024-01-30T08:41:44;9.80;58.90
8565;DHT22;4320;51.498;6.556;2024-01-30T08:44:09;9.80;57.00
8565;DHT22;4320;51.498;6.556;2024-01-30T08:46:36;9.80;57.10
8565;DHT22;4320;51.498;6.556;2024-01-30T08:49:02;9.70;56.30
8565;DHT22;4320;51.498;6.556;2024-01-30T08:51:29;9.80;57.10
8565;DHT22;4320;51.498;6.556;2024-01-30T08:53:55;9.70;56.70
8565;DHT22;4320;51.498;6.556;2024-01-30T08:56:21;9.70;57.90
8565;DHT22;4320;51.498;6.556;2024-01-30T08:58:46;9.70;58.80
8565;DHT22;4320;51.498;6.556;2024-01-30T09:01:12;9.70;60.60
8565;DHT22;4320;51.498;6.556;2024-01-30T09:03:37;9.70;59.60
8565;DHT22;4320;51.498;6.556;2024-01-30T09:06:08;9.80;60.80
8565;DHT22;4320;51.498;6.556;2024-01-30T09:08:34;9.80;58.90
8565;DHT22;4320;51.498;6.556;2024-01-30T09:11:00;9.80;59.40
8565;DHT22;4320;51.498;6.556;2024-01-30T09:13:25;9.80;59.70
8565;DHT22;4320;51.498;6.556;2024-01-30T09:15:51;9.90;60.60
8565;DHT22;4320;51.498;6.556;2024-01-30T09:18:16;9.90;63.00
8565;DHT22;4320;51.498;6.556;2024-01-30T09:20:42;10.00;56.80
8565;DHT22;4320;51.498;6.556;2024-01-30T09:23:07;10.10;56.70
8565;DHT22;4320;51.498;6.556;2024-01-30T09:25:33;10.20;56.30
8565;DHT22;4320;51.498;6.556;2024-01-30T09:27:59;10.30;54.50
8565;DHT22;4320;51.498;6.556;2024-01-30T09:30:25;10.40;51.80
8565;DHT22;4320;51.498;6.556;2024-01-30T09:32:50;10.40;50.10
8565;DHT22;4320;51.498;6.556;2024-01-30T09:35:16;10.50;48.20
8565;DHT22;4320;51.498;6.556;2024-01-30T09:37:42;10.50;46.40
8565;DHT22;4320;51.498;6.556;2024-01-30T09:40:08;10.50;45.30
8565;DHT22;4320;51.498;6.556;2024-01-30T09:42:35;10.60;45.30
8565;DHT22;4320;51.498;6.556;2024-01-30T09:45:05;10.70;43.70
8565;DHT22;4320;51.498;6.556;2024-01-30T09:47:40;10.70;41.50
8565;DHT22;4320;51.498;6.556;2024-01-30T09:50:09;10.90;38.30
8565;DHT22;4320;51.498;6.556;2024-01-30T09:52:35;10.80;36.40
8565;DHT22;4320;51.498;6.556;2024-01-30T09:55:01;10.90;37.30
8565;DHT22;4320;51.498;6.556;2024-01-30T09:57:27;11.00;32.80
8565;DHT22;4320;51.498;6.556;2024-01-30T09:59:53;11.00;29.40
8565;DHT22;4320;51.498;6.556;2024-01-30T10:02:20;11.00;27.20
8565;DHT22;4320;51.498;6.556;2024-01-30T10:04:49;10.90;27.60
8565;DHT22;4320;51.498;6.556;2024-01-30T10:07:18;10.90;26.00
8565;DHT22;4320;51.498;6.556;2024-01-30T10:09:45;11.00;26.60
8565;DHT22;4320;51.498;6.556;2024-01-30T10:12:11;11.10;26.20
8565;DHT22;4320;51.498;6.556;2024-01-30T10:14:41;11.10;24.90
8565;DHT22;4320;51.498;6.556;2024-01-30T10:17:10;11.10;24.60
8565;DHT22;4320;51.498;6.556;2024-01-30T10:19:37;11.20;25.20
8565;DHT22;4320;51.498;6.556;2024-01-30T10:22:06;11.30;24.30
8565;DHT22;4320;51.498;6.556;2024-01-30T10:24:34;11.20;24.10
8565;DHT22;4320;51.498;6.556;2024-01-30T10:26:59;11.20;24.40
8565;DHT22;4320;51.498;6.556;2024-01-30T10:29:25;11.30;25.00
8565;DHT22;4320;51.498;6.556;2024-01-30T10:32:04;11.50;24.70
8565;DHT22;4320;51.498;6.556;2024-01-30T10:34:31;11.60;22.60
8565;DHT22;4320;51.498;6.556;2024-01-30T10:37:10;11.70;24.80
8565;DHT22;4320;51.498;6.556;2024-01-30T10:39:39;11.70;19.80
8565;DHT22;4320;51.498;6.556;2024-01-30T10:42:05;11.70;18.40
8565;DHT22;4320;51.498;6.556;2024-01-30T10:47:12;11.80;18.20
8565;DHT22;4320;51.498;6.556;2024-01-30T10:49:41;11.80;18.00
8565;DHT22;4320;51.498;6.556;2024-01-30T10:52:09;11.80;18.40
8565;DHT22;4320;51.498;6.556;2024-01-30T10:54:36;11.80;17.90
8565;DHT22;4320;51.498;6.556;2024-01-30T10:57:03;11.80;17.50
8565;DHT22;4320;51.498;6.556;2024-01-30T10:59:31;11.80;17.00
8565;DHT22;4320;51.498;6.556;2024-01-30T11:01:58;11.80;16.90
8565;DHT22;4320;51.498;6.556;2024-01-30T11:04:24;11.90;16.50
8565;DHT22;4320;51.498;6.556;2024-01-30T11:06:50;11.90;16.70
8565;DHT22;4320;51.498;6.556;2024-01-30T11:09:18;12.00;16.60
8565;DHT22;4320;51.498;6.556;2024-01-30T11:11:58;11.90;15.60
8565;DHT22;4320;51.498;6.556;2024-01-30T11:14:30;11.90;15.40
8565;DHT22;4320;51.498;6.556;2024-01-30T11:16:59;11.90;16.30
8565;DHT22;4320;51.498;6.556;2024-01-30T11:19:26;11.90;16.00
8565;DHT22;4320;51.498;6.556;2024-01-30T11:21:55;12.00;16.70
8565;DHT22;4320;51.498;6.556;2024-01-30T11:24:22;12.00;15.60
8565;DHT22;4320;51.498;6.556;2024-01-30T11:26:58;11.90;15.50
8565;DHT22;4320;51.498;6.556;2024-01-30T11:29:28;11.90;16.80
8565;DHT22;4320;51.498;6.556;2024-01-30T11:31:54;11.90;16.70
8565;DHT22;4320;51.498;6.556;2024-01-30T11:34:21;11.90;17.20
8565;DHT22;4320;51.498;6.556;2024-01-30T11:37:03;11.90;17.80
8565;DHT22;4320;51.498;6.556;2024-01-30T11:39:30;11.90;18.60
8565;DHT22;4320;51.498;6.556;2024-01-30T11:41:57;11.90;18.50
8565;DHT22;4320;51.498;6.556;2024-01-30T11:44:23;11.80;19.50
8565;DHT22;4320;51.498;6.556;2024-01-30T11:46:50;11.90;20.10
8565;DHT22;4320;51.498;6.556;2024-01-30T11:49:16;12.00;20.70
8565;DHT22;4320;51.498;6.556;2024-01-30T11:51:48;12.00;20.00
8565;DHT22;4320;51.498;6.556;2024-01-30T11:54:17;12.00;21.40
8565;DHT22;4320;51.498;6.556;2024-01-30T11:56:43;12.00;21.10
8565;DHT22;4320;51.498;6.556;2024-01-30T11:59:09;12.00;22.10
8565;DHT22;4320;51.498;6.556;2024-01-30T12:01:34;12.00;22.40
8565;DHT22;4320;51.498;6.556;2024-01-30T12:04:00;12.00;22.70
8565;DHT22;4320;51.498;6.556;2024-01-30T12:06:26;12.00;23.00
8565;DHT22;4320;51.498;6.556;2024-01-30T12:09:02;12.00;22.80
8565;DHT22;4320;51.498;6.556;2024-01-30T12:11:34;12.00;24.10
8565;DHT22;4320;51.498;6.556;2024-01-30T12:14:08;12.10;24.10
8565;DHT22;4320;51.498;6.556;2024-01-30T12:16:34;12.10;25.30
8565;DHT22;4320;51.498;6.556;2024-01-30T12:19:00;12.10;24.90
8565;DHT22;4320;51.498;6.556;2024-01-30T12:21:29;12.10;24.80
8565;DHT22;4320;51.498;6.556;2024-01-30T12:23:56;12.10;25.60
8565;DHT22;4320;51.498;6.556;2024-01-30T12:26:24;12.20;26.50
8565;DHT22;4320;51.498;6.556;2024-01-30T12:28:53;12.20;29.80
8565;DHT22;4320;51.498;6.556;2024-01-30T12:31:25;12.30;26.90
8565;DHT22;4320;51.498;6.556;2024-01-30T12:33:52;12.30;27.10
8565;DHT22;4320;51.498;6.556;2024-01-30T12:36:18;12.40;26.90
8565;DHT22;4320;51.498;6.556;2024-01-30T12:38:44;12.40;26.60
8565;DHT22;4320;51.498;6.556;2024-01-30T12:41:10;12.50;26.80
8565;DHT22;4320;51.498;6.556;2024-01-30T12:43:36;12.50;27.30
8565;DHT22;4320;51.498;6.556;2024-01-30T12:46:03;12.50;27.60
8565;DHT22;4320;51.498;6.556;2024-01-30T12:48:28;12.50;29.40
8565;DHT22;4320;51.498;6.556;2024-01-30T12:50:56;12.60;29.60
8565;DHT22;4320;51.498;6.556;2024-01-30T12:53:22;12.60;31.30
8565;DHT22;4320;51.498;6.556;2024-01-30T12:55:47;12.70;31.10
8565;DHT22;4320;51.498;6.556;2024-01-30T12:58:15;12.80;31.10
8565;DHT22;4320;51.498;6.556;2024-01-30T13:00:41;12.90;30.00
8565;DHT22;4320;51.498;6.556;2024-01-30T13:03:08;12.90;29.10
8565;DHT22;4320;51.498;6.556;2024-01-30T13:05:33;12.90;28.90
8565;DHT22;4320;51.498;6.556;2024-01-30T13:07:59;13.00;29.40
8565;DHT22;4320;51.498;6.556;2024-01-30T13:10:25;13.00;27.10
8565;DHT22;4320;51.498;6.556;2024-01-30T13:12:51;13.10;27.10
8565;DHT22;4320;51.498;6.556;2024-01-30T13:15:16;13.10;25.40
8565;DHT22;4320;51.498;6.556;2024-01-30T13:17:42;13.10;24.50
8565;DHT22;4320;51.498;6.556;2024-01-30T13:20:09;13.10;23.70
8565;DHT22;4320;51.498;6.556;2024-01-30T13:22:35;13.10;23.00
8565;DHT22;4320;51.498;6.556;2024-01-30T13:25:00;13.20;21.80
8565;DHT22;4320;51.498;6.556;2024-01-30T13:27:26;13.10;21.00
8565;DHT22;4320;51.498;6.556;2024-01-30T13:29:52;13.10;19.90
8565;DHT22;4320;51.498;6.556;2024-01-30T13:32:18;13.00;19.60
8565;DHT22;4320;51.498;6.556;2024-01-30T13:34:43;13.00;18.40
8565;DHT22;4320;51.498;6.556;2024-01-30T13:37:09;12.90;17.10
8565;DHT22;4320;51.498;6.556;2024-01-30T13:39:34;12.90;17.70
8565;DHT22;4320;51.498;6.556;2024-01-30T13:42:00;12.90;17.20
8565;DHT22;4320;51.498;6.556;2024-01-30T13:44:26;13.00;15.50
8565;DHT22;4320;51.498;6.556;2024-01-30T13:46:51;12.90;16.60
8565;DHT22;4320;51.498;6.556;2024-01-30T13:49:17;12.90;16.70
8565;DHT22;4320;51.498;6.556;2024-01-30T13:51:42;12.90;14.70
8565;DHT22;4320;51.498;6.556;2024-01-30T13:54:08;12.90;13.20
8565;DHT22;4320;51.498;6.556;2024-01-30T13:56:34;13.00;10.00
8565;DHT22;4320;51.498;6.556;2024-01-30T13:58:59;13.00;7.80
8565;DHT22;4320;51.498;6.556;2024-01-30T14:01:26;12.90;7.50
8565;DHT22;4320;51.498;6.556;2024-01-30T14:03:52;12.80;8.90
8565;DHT22;4320;51.498;6.556;2024-01-30T14:06:18;12.80;9.20
8565;DHT22;4320;51.498;6.556;2024-01-30T14:08:44;12.70;11.10
8565;DHT22;4320;51.498;6.556;2024-01-30T14:11:10;12.60;10.80
8565;DHT22;4320;51.498;6.556;2024-01-30T14:13:35;12.50;9.00
8565;DHT22;4320;51.498;6.556;2024-01-30T14:16:01;12.40;1.20
8565;DHT22;4320;51.498;6.556;2024-01-30T14:18:27;12.40;1.00
8565;DHT22;4320;51.498;6.556;2024-01-30T14:20:52;12.30;1.00
8565;DHT22;4320;51.498;6.556;2024-01-30T14:23:18;12.40;1.00
8565;DHT22;4320;51.498;6.556;2024-01-30T14:25:44;12.40;1.00
8565;DHT22;4320;51.498;6.556;2024-01-30T14:28:10;12.30;1.00
8565;DHT22;4320;51.498;6.556;2024-01-30T14:30:35;12.30;1.00
8565;DHT22;4320;51.498;6.556;2024-01-30T14:33:01;12.20;1.00
8565;DHT22;4320;51.498;6.556;2024-01-30T14:35:27;12.10;1.00
8565;DHT22;4320;51.498;6.556;2024-01-30T14:37:53;12.10;1.00
8565;DHT22;4320;51.498;6.556;2024-01-30T14:40:19;12.10;1.00
8565;DHT22;4320;51.498;6.556;2024-01-30T14:42:45;12.10;1.00
8565;DHT22;4320;51.498;6.556;2024-01-30T14:45:11;12.20;1.00
8565;DHT22;4320;51.498;6.556;2024-01-30T14:47:37;12.10;1.00
8565;DHT22;4320;51.498;6.556;2024-01-30T14:50:03;12.00;1.00
8565;DHT22;4320;51.498;6.556;2024-01-30T14:52:30;12.00;1.00
8565;DHT22;4320;51.498;6.556;2024-01-30T14:54:57;11.90;1.00
8565;DHT22;4320;51.498;6.556;2024-01-30T14:57:24;12.00;1.00
8565;DHT22;4320;51.498;6.556;2024-01-30T14:59:49;12.10;1.00
8565;DHT22;4320;51.498;6.556;2024-01-30T15:02:15;12.00;1.00
8565;DHT22;4320;51.498;6.556;2024-01-30T15:04:41;12.00;1.00
8565;DHT22;4320;51.498;6.556;2024-01-30T15:07:06;11.90;1.00
8565;DHT22;4320;51.498;6.556;2024-01-30T15:09:32;11.80;1.00
8565;DHT22;4320;51.498;6.556;2024-01-30T15:11:58;11.80;1.00
8565;DHT22;4320;51.498;6.556;2024-01-30T15:14:23;11.80;1.00
8565;DHT22;4320;51.498;6.556;2024-01-30T15:16:49;11.70;1.00
8565;DHT22;4320;51.498;6.556;2024-01-30T15:19:15;11.60;1.00
8565;DHT22;4320;51.498;6.556;2024-01-30T15:21:41;11.60;1.00
8565;DHT22;4320;51.498;6.556;2024-01-30T15:24:06;11.50;1.00
8565;DHT22;4320;51.498;6.556;2024-01-30T15:26:32;11.50;1.00
8565;DHT22;4320;51.498;6.556;2024-01-30T15:28:58;11.60;1.00
8565;DHT22;4320;51.498;6.556;2024-01-30T15:31:23;11.50;1.00
8565;DHT22;4320;51.498;6.556;2024-01-30T15:33:49;11.50;1.00
8565;DHT22;4320;51.498;6.556;2024-01-30T15:36:14;11.50;1.00
8565;DHT22;4320;51.498;6.556;2024-01-30T15:38:41;11.50;1.00
8565;DHT22;4320;51.498;6.556;2024-01-30T15:41:07;11.60;1.00
8565;DHT22;4320;51.498;6.556;2024-01-30T15:43:32;11.60;1.00
8565;DHT22;4320;51.498;6.556;2024-01-30T15:45:59;11.60;1.00
8565;DHT22;4320;51.498;6.556;2024-01-30T15:48:26;11.50;1.00
8565;DHT22;4320;51.498;6.556;2024-01-30T15:50:52;11.50;1.00
8565;DHT22;4320;51.498;6.556;2024-01-30T15:53:20;11.50;1.00
8565;DHT22;4320;51.498;6.556;2024-01-30T15:55:46;11.50;1.00
8565;DHT22;4320;51.498;6.556;2024-01-30T15:58:12;11.50;1.00
8565;DHT22;4320;51.498;6.556;2024-01-30T16:00:37;11.50;1.00
8565;DHT22;4320;51.498;6.556;2024-01-30T16:03:04;11.50;1.00
8565;DHT22;4320;51.498;6.556;2024-01-30T16:05:29;11.60;1.00
8565;DHT22;4320;51.498;6.556;2024-01-30T16:07:55;11.50;1.00